Time;durP1;ratioP1;P1;durP2;ratioP2;P2;SDS_P1;SDS_P2;PMS_P1;PMS_P2;Temp;Humidity;BMP_temperature;BMP_pressure;BME280_temperature;BME280_humidity;BME280_pressure;Samples;Min_cycle;Max_cycle;Signal;HPM_P1;HPM_P2
2021/09/15 00:01:08;;;;;;;4.00;3.70;;;;;;;24.29;47.68;98071.59;5093664;28;20650;-57
2021/09/15 00:03:37;;;;;;;4.10;3.80;;;;;;;24.27;47.76;98073.63;5093433;28;20187;-55
2021/09/15 00:06:04;;;;;;;4.33;4.03;;;;;;;24.27;47.68;98074.47;5093297;28;20184;-56
2021/09/15 00:08:31;;;;;;;4.10;3.83;;;;;;;24.31;47.57;98074.88;5093478;28;20220;-55
2021/09/15 00:10:58;;;;;;;4.13;3.90;;;;;;;24.29;47.68;98072.41;5093819;28;20188;-56
2021/09/15 00:13:24;;;;;;;4.13;3.83;;;;;;;24.30;47.54;98065.25;5093201;28;20183;-53
2021/09/15 00:15:51;;;;;;;3.80;3.60;;;;;;;24.30;47.44;98066.03;5093262;28;20195;-54
2021/09/15 00:18:18;;;;;;;4.43;4.13;;;;;;;24.29;47.59;98061.75;5092880;28;20184;-53
2021/09/15 00:20:44;;;;;;;4.07;3.77;;;;;;;24.28;47.83;98065.44;5092978;28;20618;-57
2021/09/15 00:23:11;;;;;;;3.87;3.67;;;;;;;24.30;47.72;98066.03;5093708;28;20258;-57
2021/09/15 00:25:37;;;;;;;4.30;4.00;;;;;;;24.31;47.57;98056.22;5093408;28;20681;-57
2021/09/15 00:28:03;;;;;;;3.90;3.70;;;;;;;24.29;47.60;98053.75;5093162;28;20207;-57
2021/09/15 00:30:30;;;;;;;4.50;4.20;;;;;;;24.29;47.53;98055.59;5092947;28;20690;-57
2021/09/15 00:32:56;;;;;;;4.00;3.80;;;;;;;24.29;47.59;98051.06;5093073;28;20207;-57
2021/09/15 00:35:23;;;;;;;4.10;3.80;;;;;;;24.30;47.52;98055.38;5091800;28;20196;-55
2021/09/15 00:37:49;;;;;;;4.40;4.10;;;;;;;24.31;47.47;98054.34;5093028;28;20233;-55
2021/09/15 00:40:16;;;;;;;4.00;3.70;;;;;;;24.32;47.51;98056.00;5092949;28;20206;-57
2021/09/15 00:42:42;;;;;;;4.47;4.17;;;;;;;24.31;47.57;98054.34;5092965;28;20253;-55
2021/09/15 00:45:11;;;;;;;4.20;3.90;;;;;;;24.29;47.63;98045.75;5091630;28;20204;-54
2021/09/15 00:47:38;;;;;;;3.60;3.40;;;;;;;24.29;47.53;98051.06;5092881;28;20713;-56
2021/09/15 00:50:05;;;;;;;3.80;3.50;;;;;;;24.28;47.57;98044.13;5093236;28;20690;-57
2021/09/15 00:52:32;;;;;;;4.03;3.73;;;;;;;24.29;47.42;98039.63;5095791;28;20192;-56
2021/09/15 00:55:00;;;;;;;4.07;3.77;;;;;;;24.30;47.53;98031.38;5095726;28;20219;-57
2021/09/15 00:57:27;;;;;;;3.90;3.67;;;;;;;24.28;47.57;98032.59;5095669;28;20184;-57
2021/09/15 00:59:54;;;;;;;4.30;4.00;;;;;;;24.29;47.40;98023.63;5096864;28;20314;-57
2021/09/15 01:02:21;;;;;;;4.10;3.90;;;;;;;24.27;47.54;98014.97;5095551;28;20192;-57
2021/09/15 01:04:47;;;;;;;4.37;4.03;;;;;;;24.24;47.56;98024.22;5095645;28;20194;-56
2021/09/15 02:48:01;;;;;;;3.90;3.70;;;;;;;24.12;47.45;97999.25;5094663;28;20578;-56
2021/09/15 02:50:50;;;;;;;4.17;3.87;;;;;;;24.12;47.74;97999.25;5086339;28;20206;-57
2021/09/15 02:53:32;;;;;;;4.10;3.80;;;;;;;24.10;47.72;97992.28;5093482;28;20192;-56
2021/09/15 02:56:19;;;;;;;3.83;3.53;;;;;;;24.12;47.69;97997.38;5094258;28;20207;-56
2021/09/15 02:58:54;;;;;;;3.90;3.60;;;;;;;24.14;47.63;97995.34;5093400;28;20204;-57
2021/09/15 03:01:33;;;;;;;3.87;3.67;;;;;;;24.17;47.55;97994.91;5078321;28;20245;-57
2021/09/15 03:04:31;;;;;;;4.00;3.77;;;;;;;24.20;47.36;97999.00;5089493;28;20287;-56
2021/09/15 03:07:23;;;;;;;4.03;3.73;;;;;;;24.25;47.35;97996.53;5093136;28;20708;-56
2021/09/15 03:09:50;;;;;;;3.90;3.67;;;;;;;24.26;47.18;97997.34;5093058;28;20215;-57
2021/09/15 03:12:18;;;;;;;3.87;3.67;;;;;;;24.25;47.24;97991.22;5094308;28;20550;-57
2021/09/15 03:14:45;;;;;;;3.50;3.30;;;;;;;24.19;47.25;97994.69;5092978;28;20245;-56
2021/09/15 03:17:12;;;;;;;4.17;3.87;;;;;;;24.16;47.46;97997.78;5092886;28;20280;-56
2021/09/15 03:19:38;;;;;;;3.97;3.67;;;;;;;24.17;47.51;97996.75;5094191;28;20294;-57
2021/09/15 03:22:06;;;;;;;3.53;3.33;;;;;;;24.15;47.47;97991.66;5093765;28;20261;-57
2021/09/15 03:24:33;;;;;;;3.90;3.60;;;;;;;24.14;47.32;97994.50;5092859;28;20217;-56
2021/09/15 03:27:03;;;;;;;4.10;3.80;;;;;;;24.13;47.61;97990.22;5092733;28;20283;-53
2021/09/15 03:29:33;;;;;;;4.00;3.70;;;;;;;24.13;47.71;97987.56;5092692;28;20211;-57
2021/09/15 03:32:00;;;;;;;4.40;4.10;;;;;;;24.12;47.54;97985.91;5092786;28;20196;-56
2021/09/15 03:34:27;;;;;;;3.97;3.77;;;;;;;24.14;47.56;97984.69;5092917;28;20556;-57
2021/09/15 03:36:54;;;;;;;4.03;3.77;;;;;;;24.17;47.39;97994.09;5094223;28;20211;-57
2021/09/15 03:39:21;;;;;;;4.20;3.90;;;;;;;24.16;47.50;97981.78;5092583;28;20236;-56
2021/09/15 03:41:48;;;;;;;3.93;3.70;;;;;;;24.16;47.45;97981.78;5092590;28;20253;-57
2021/09/15 03:44:15;;;;;;;3.83;3.60;;;;;;;24.14;47.39;97975.84;5075778;28;20191;-57
2021/09/15 03:46:42;;;;;;;4.00;3.70;;;;;;;24.11;47.81;97977.09;5075508;28;20606;-59
2021/09/15 03:49:08;;;;;;;4.30;3.90;;;;;;;24.12;47.57;97980.59;5092333;28;20222;-57
2021/09/15 03:51:35;;;;;;;4.10;3.80;;;;;;;24.10;47.54;97978.94;5092366;28;20278;-57
2021/09/15 03:54:02;;;;;;;4.13;3.83;;;;;;;24.08;47.59;97978.34;5092299;28;20191;-56
2021/09/15 03:56:29;;;;;;;3.53;3.30;;;;;;;24.10;47.43;97978.09;5092292;28;20202;-57
2021/09/15 03:58:57;;;;;;;3.97;3.70;;;;;;;24.08;47.58;97974.84;5092127;28;20565;-57
2021/09/15 04:01:23;;;;;;;3.73;3.47;;;;;;;24.08;47.53;97975.69;5092472;28;20283;-57
2021/09/15 04:03:50;;;;;;;3.77;3.57;;;;;;;24.08;47.60;97981.00;5092145;28;20205;-56
2021/09/15 04:06:17;;;;;;;3.70;3.50;;;;;;;24.08;47.63;97975.69;5092165;28;20195;-57
2021/09/15 04:08:43;;;;;;;4.33;4.03;;;;;;;24.06;47.63;97980.41;5091996;28;20310;-57
2021/09/15 04:11:10;;;;;;;3.97;3.77;;;;;;;24.09;47.57;97982.66;5092219;28;20670;-57
2021/09/15 04:13:37;;;;;;;3.80;3.60;;;;;;;24.10;47.65;97976.28;5092175;28;20253;-57
2021/09/15 04:16:04;;;;;;;4.10;3.80;;;;;;;24.07;47.65;97981.19;5092006;28;20196;-57
2021/09/15 04:18:33;;;;;;;4.00;3.80;;;;;;;24.06;47.70;97988.41;5092155;28;20210;-57
2021/09/15 04:21:00;;;;;;;3.97;3.67;;;;;;;24.05;47.53;97992.09;5093627;28;20271;-57
2021/09/15 04:23:32;;;;;;;3.50;3.30;;;;;;;24.04;47.78;97993.09;5075396;28;20191;-57
2021/09/15 04:31:46;;;;;;;3.70;3.50;;;;;;;24.07;47.58;98006.03;4991576;28;20195;-57
2021/09/15 04:34:13;;;;;;;4.00;3.70;;;;;;;24.02;47.69;98008.47;5055170;28;20192;-57
2021/09/15 04:36:52;;;;;;;3.87;3.57;;;;;;;24.06;47.56;98014.22;5091863;28;20562;-55
2021/09/15 04:39:18;;;;;;;3.63;3.43;;;;;;;24.02;47.58;98013.81;5091723;28;20223;-57
2021/09/15 04:41:45;;;;;;;3.73;3.53;;;;;;;24.02;47.79;98011.13;5092615;28;20651;-57
2021/09/15 04:44:11;;;;;;;3.80;3.50;;;;;;;24.02;47.70;98012.97;5093008;28;20195;-57
2021/09/15 04:46:38;;;;;;;3.80;3.60;;;;;;;24.04;47.71;98005.63;5093047;28;20646;-57
2021/09/15 04:49:04;;;;;;;4.07;3.77;;;;;;;24.02;47.59;98013.81;5091546;28;20258;-55
2021/09/15 04:51:34;;;;;;;4.00;3.70;;;;;;;24.00;47.58;98010.50;5091618;28;20673;-57
2021/09/15 04:54:01;;;;;;;3.90;3.60;;;;;;;24.00;47.70;98015.84;5092152;28;20283;-57
2021/09/15 04:56:28;;;;;;;4.03;3.73;;;;;;;23.98;47.67;98017.09;5091845;28;20187;-56
2021/09/15 04:58:55;;;;;;;3.50;3.30;;;;;;;23.97;47.78;98013.59;5091574;28;20215;-55
2021/09/15 05:01:21;;;;;;;3.87;3.67;;;;;;;23.96;47.76;98018.13;5091546;28;20241;-57
2021/09/15 05:03:48;;;;;;;3.83;3.63;;;;;;;23.98;47.79;98017.09;5091957;28;20241;-56
2021/09/15 05:06:18;;;;;;;3.90;3.60;;;;;;;23.99;47.48;98024.06;5092635;28;20555;-57
2021/09/15 05:08:45;;;;;;;4.10;3.80;;;;;;;23.99;47.69;98026.72;5091377;28;20310;-57
2021/09/15 05:11:11;;;;;;;3.90;3.70;;;;;;;24.01;47.70;98027.31;5091424;28;20571;-57
2021/09/15 05:13:40;;;;;;;4.03;3.73;;;;;;;23.99;47.81;98029.38;5091463;28;20192;-57
2021/09/15 05:16:07;;;;;;;3.97;3.67;;;;;;;24.02;47.51;98031.63;5092483;28;20619;-57
2021/09/15 05:18:33;;;;;;;3.77;3.53;;;;;;;24.02;47.56;98037.78;5091428;28;20295;-57
2021/09/15 05:21:01;;;;;;;3.60;3.40;;;;;;;24.01;47.63;98035.31;5091643;28;20196;-57
2021/09/15 05:23:28;;;;;;;3.93;3.63;;;;;;;23.99;47.69;98032.84;5091354;28;20275;-57
2021/09/15 05:26:00;;;;;;;4.00;3.80;;;;;;;24.02;47.59;98023.63;5091295;28;20184;-55
2021/09/15 05:28:27;;;;;;;3.70;3.50;;;;;;;23.99;47.65;98019.53;5091114;28;20215;-57
2021/09/15 05:30:53;;;;;;;3.60;3.40;;;;;;;23.98;47.80;98020.56;5092537;28;20184;-57
2021/09/15 05:33:20;;;;;;;4.03;3.73;;;;;;;24.00;47.65;98023.03;5091231;28;20196;-56
2021/09/15 05:35:47;;;;;;;3.80;3.60;;;;;;;23.99;47.84;98032.03;5091403;28;20227;-57
2021/09/15 05:38:15;;;;;;;3.73;3.53;;;;;;;23.99;47.61;98034.72;5093045;28;20218;-56
2021/09/15 05:40:55;;;;;;;3.80;3.60;;;;;;;23.99;47.66;98032.84;5095470;28;20188;-57
2021/09/15 05:43:22;;;;;;;3.93;3.73;;;;;;;23.99;47.59;98027.53;5096051;28;20561;-56
2021/09/15 05:45:48;;;;;;;3.87;3.67;;;;;;;23.99;47.66;98027.53;5096515;28;20579;-56
2021/09/15 05:48:15;;;;;;;3.67;3.47;;;;;;;23.99;47.53;98016.84;5094460;28;20294;-57
2021/09/15 05:50:42;;;;;;;3.47;3.27;;;;;;;23.99;47.64;98010.72;5094557;28;20192;-56
2021/09/15 05:53:09;;;;;;;3.70;3.50;;;;;;;23.99;47.63;98013.38;5094526;28;20567;-57
2021/09/15 05:55:36;;;;;;;3.87;3.57;;;;;;;23.99;47.60;98018.72;5094669;28;20196;-57
2021/09/15 05:58:02;;;;;;;3.53;3.33;;;;;;;24.00;47.63;98026.50;5095834;28;20188;-56
2021/09/15 06:00:29;;;;;;;3.50;3.30;;;;;;;24.00;47.53;98023.81;5095701;28;20207;-57
2021/09/15 06:03:02;;;;;;;4.17;3.87;;;;;;;23.98;47.60;98028.56;5094376;28;20184;-57
2021/09/15 06:05:48;;;;;;;3.50;3.30;;;;;;;23.98;47.61;98028.56;5096189;28;20683;-57
2021/09/15 06:08:16;;;;;;;3.93;3.63;;;;;;;23.99;47.67;98026.72;5094136;28;20224;-55
2021/09/15 06:10:43;;;;;;;3.60;3.40;;;;;;;23.99;47.47;98024.84;5094240;28;20207;-57
2021/09/15 06:13:10;;;;;;;3.60;3.40;;;;;;;23.99;47.55;98026.72;5094399;28;20233;-57
2021/09/15 06:15:36;;;;;;;3.63;3.43;;;;;;;23.99;47.63;98026.72;5077458;28;20292;-57
2021/09/15 06:18:04;;;;;;;3.87;3.57;;;;;;;24.00;47.57;98023.03;5094012;28;20202;-57
2021/09/15 06:20:40;;;;;;;3.40;3.20;;;;;;;24.00;47.71;98020.34;5094347;28;20196;-57
2021/09/15 06:23:15;;;;;;;3.77;3.57;;;;;;;23.98;47.57;98020.56;5094096;28;20279;-57
2021/09/15 06:25:47;;;;;;;3.67;3.43;;;;;;;23.97;47.70;98016.25;5093997;28;20187;-57
2021/09/15 06:28:14;;;;;;;4.33;3.93;;;;;;;23.96;47.68;98019.94;5093719;28;20212;-56
2021/09/15 06:30:41;;;;;;;3.50;3.27;;;;;;;23.97;47.78;98016.25;5093829;28;20572;-57
2021/09/15 06:33:08;;;;;;;3.80;3.60;;;;;;;24.01;47.60;98016.66;5095386;28;20210;-54
2021/09/15 06:35:36;;;;;;;3.80;3.60;;;;;;;24.02;47.44;98015.63;5095059;28;20670;-57
2021/09/15 06:38:03;;;;;;;3.70;3.50;;;;;;;24.03;47.59;98015.44;5095224;28;20192;-54
2021/09/15 06:40:30;;;;;;;3.67;3.47;;;;;;;24.03;47.53;98014.63;5093559;28;20220;-54
2021/09/15 06:42:57;;;;;;;3.63;3.43;;;;;;;24.04;47.42;98016.28;5094935;28;20249;-57
2021/09/15 06:45:23;;;;;;;3.57;3.37;;;;;;;24.04;47.48;98017.06;5095141;28;20245;-57
2021/09/15 06:47:49;;;;;;;3.63;3.43;;;;;;;24.02;47.57;98013.81;5094813;28;20241;-56
2021/09/15 06:50:16;;;;;;;3.83;3.53;;;;;;;24.02;47.61;98012.97;5094833;28;20234;-57
2021/09/15 06:52:43;;;;;;;3.97;3.70;;;;;;;24.01;47.59;98011.34;5094707;28;20188;-54
2021/09/15 06:55:10;;;;;;;3.70;3.40;;;;;;;24.00;47.50;98021.16;5094596;28;20184;-57
2021/09/15 06:57:38;;;;;;;3.57;3.37;;;;;;;24.00;47.48;98013.16;5094598;28;20641;-56
2021/09/15 07:00:07;;;;;;;3.67;3.40;;;;;;;24.00;47.75;98015.03;5094373;28;20279;-57
2021/09/15 07:02:34;;;;;;;3.73;3.50;;;;;;;23.99;47.63;98014.19;5094484;28;20183;-56
2021/09/15 07:05:00;;;;;;;3.90;3.70;;;;;;;23.98;47.43;98015.22;5094745;28;20195;-57
2021/09/15 07:07:27;;;;;;;3.73;3.47;;;;;;;23.99;47.65;98013.38;5094408;28;20679;-57
2021/09/15 07:09:53;;;;;;;3.57;3.37;;;;;;;24.00;47.60;98026.50;5094340;28;20216;-55
2021/09/15 07:12:21;;;;;;;4.03;3.77;;;;;;;23.95;47.60;98018.31;5094178;28;20203;-57
2021/09/15 07:14:47;;;;;;;3.53;3.30;;;;;;;23.92;47.76;98024.06;5094283;28;20192;-56
2021/09/15 07:17:14;;;;;;;3.70;3.50;;;;;;;23.90;47.86;98026.91;5094065;28;20199;-55
2021/09/15 07:19:40;;;;;;;3.60;3.30;;;;;;;23.91;47.81;98017.91;5092877;28;20200;-56
2021/09/15 07:22:07;;;;;;;3.50;3.30;;;;;;;23.92;47.79;98024.88;5094401;28;20184;-56
2021/09/15 07:24:33;;;;;;;3.33;3.13;;;;;;;23.91;47.86;98022.41;5093917;28;20312;-54
2021/09/15 07:27:00;;;;;;;3.83;3.60;;;;;;;23.92;47.82;98029.38;5094023;28;20237;-52
2021/09/15 07:29:30;;;;;;;3.87;3.53;;;;;;;23.95;47.90;98018.31;5093801;28;20208;-55
2021/09/15 07:31:56;;;;;;;3.70;3.40;;;;;;;23.99;47.72;98024.84;5093836;28;20183;-52
2021/09/15 07:34:23;;;;;;;3.50;3.30;;;;;;;24.01;47.71;98025.47;5093872;28;20180;-53
2021/09/15 07:36:49;;;;;;;3.30;3.10;;;;;;;24.03;47.69;98014.63;5094059;28;20179;-54
2021/09/15 07:39:16;;;;;;;3.60;3.40;;;;;;;24.03;47.84;98026.09;5093676;28;20214;-56
2021/09/15 07:41:42;;;;;;;3.57;3.27;;;;;;;24.03;47.85;98026.09;5093924;28;20245;-56
2021/09/15 07:44:09;;;;;;;3.83;3.53;;;;;;;24.04;48.12;98033.06;5094325;28;20211;-56
2021/09/15 07:46:35;;;;;;;3.67;3.40;;;;;;;24.04;47.98;98027.75;5093932;28;20220;-56
2021/09/15 07:49:02;;;;;;;3.90;3.60;;;;;;;24.03;48.14;98026.09;5093518;28;20262;-57
2021/09/15 07:51:28;;;;;;;3.90;3.60;;;;;;;24.03;48.11;98033.28;5093624;28;20304;-54
2021/09/15 07:53:55;;;;;;;3.33;3.13;;;;;;;23.99;48.29;98040.84;5093490;28;20191;-56
2021/09/15 07:56:22;;;;;;;4.07;3.77;;;;;;;24.03;48.14;98038.63;5093744;28;20233;-54
2021/09/15 07:58:49;;;;;;;3.43;3.23;;;;;;;24.06;48.26;98040.88;5093957;28;20204;-55
2021/09/15 08:01:15;;;;;;;3.77;3.47;;;;;;;24.10;48.08;98034.09;5093076;28;20188;-53
2021/09/15 08:03:42;;;;;;;3.80;3.50;;;;;;;24.15;47.91;98033.47;5093928;28;20627;-51
2021/09/15 08:06:09;;;;;;;3.70;3.50;;;;;;;24.18;47.94;98041.03;5094345;28;20188;-53
2021/09/15 08:08:35;;;;;;;3.73;3.53;;;;;;;24.17;48.12;98047.41;5092884;28;20270;-52
2021/09/15 08:11:02;;;;;;;3.60;3.40;;;;;;;24.19;48.18;98045.34;5103627;28;20194;-54
2021/09/15 08:13:28;;;;;;;3.33;3.13;;;;;;;24.17;48.25;98042.91;5107616;28;20195;-54
2021/09/15 08:15:55;;;;;;;3.93;3.63;;;;;;;24.18;48.25;98043.72;5096571;28;20654;-52
2021/09/15 08:18:21;;;;;;;3.73;3.43;;;;;;;24.21;48.13;98038.78;5106869;28;20296;-56
2021/09/15 08:21:00;;;;;;;3.40;3.20;;;;;;;24.28;48.25;98048.59;5103355;28;20277;-55
2021/09/15 08:23:27;;;;;;;3.40;3.20;;;;;;;24.36;48.16;98045.72;5114864;28;20191;-54
2021/09/15 08:25:55;;;;;;;3.77;3.47;;;;;;;24.46;47.94;98048.78;5104542;28;20603;-54
2021/09/15 08:28:23;;;;;;;3.80;3.50;;;;;;;24.46;47.93;98035.47;5099613;28;20195;-53
2021/09/15 08:30:49;;;;;;;4.07;3.60;;;;;;;24.49;47.89;98039.53;5114285;28;20641;-53
2021/09/15 08:33:16;;;;;;;3.80;3.50;;;;;;;24.50;48.01;98041.16;5113912;28;20199;-55
2021/09/15 08:35:43;;;;;;;3.77;3.57;;;;;;;24.51;48.15;98034.81;5110281;28;20195;-53
2021/09/15 08:38:13;;;;;;;4.00;3.70;;;;;;;24.51;48.18;98037.47;5115903;28;20198;-52
2021/09/15 08:40:40;;;;;;;3.87;3.50;;;;;;;24.54;48.29;98042.41;5112240;28;20190;-55
2021/09/15 08:43:07;;;;;;;4.23;3.90;;;;;;;24.55;48.16;98041.38;5116729;28;20183;-55
2021/09/15 08:45:33;;;;;;;3.50;3.30;;;;;;;24.58;48.15;98038.28;5116911;28;20187;-52
2021/09/15 08:48:02;;;;;;;3.50;3.30;;;;;;;24.59;47.91;98045.25;5115761;28;20191;-53
2021/09/15 08:50:29;;;;;;;3.73;3.43;;;;;;;24.60;48.20;98049.56;5113514;28;20260;-58
2021/09/15 08:52:55;;;;;;;3.60;3.40;;;;;;;24.64;47.96;98049.97;5113602;28;20191;-58
2021/09/15 08:55:22;;;;;;;4.13;3.83;;;;;;;24.63;47.95;98043.78;5111850;28;20195;-55
2021/09/15 08:57:50;;;;;;;3.60;3.40;;;;;;;24.67;47.86;98047.66;5113620;28;20194;-55
2021/09/15 09:00:17;;;;;;;3.67;3.47;;;;;;;24.69;48.04;98049.31;5114630;28;20746;-55
2021/09/15 09:02:45;;;;;;;4.03;3.73;;;;;;;24.71;48.07;98050.75;5116261;28;20191;-53
2021/09/15 09:05:12;;;;;;;4.03;3.73;;;;;;;24.70;48.15;98042.97;5114187;28;20275;-54
2021/09/15 09:07:38;;;;;;;3.63;3.33;;;;;;;24.69;48.12;98043.97;5113865;28;20580;-55
2021/09/15 09:10:14;;;;;;;3.27;3.00;;;;;;;24.70;48.19;98045.63;5112394;28;20215;-61
2021/09/15 09:12:44;;;;;;;3.70;3.40;;;;;;;24.73;48.30;98050.53;5115540;28;20195;-52
2021/09/15 09:15:23;;;;;;;4.13;3.67;;;;;;;24.73;48.04;98050.53;5118371;28;20617;-53
2021/09/15 09:18:02;;;;;;;4.00;3.70;;;;;;;24.73;48.21;98051.34;5116702;28;20214;-56
2021/09/15 09:20:35;;;;;;;3.70;3.50;;;;;;;24.75;48.08;98053.81;5117625;28;20265;-55
2021/09/15 09:23:15;;;;;;;3.60;3.40;;;;;;;24.77;48.18;98054.44;5116592;28;20615;-53
2021/09/15 09:25:56;;;;;;;3.60;3.30;;;;;;;24.83;47.95;98052.78;5119224;28;20256;-53
2021/09/15 09:28:40;;;;;;;3.93;3.63;;;;;;;24.85;48.14;98054.22;5118274;28;20256;-56
2021/09/15 09:31:09;;;;;;;3.83;3.50;;;;;;;24.87;48.01;98051.31;5118360;28;20665;-52
2021/09/15 09:33:45;;;;;;;3.37;3.07;;;;;;;24.88;48.10;98050.28;5115834;28;20381;-53
2021/09/15 09:36:12;;;;;;;3.43;3.23;;;;;;;24.89;48.00;98046.59;5116936;28;20553;-53
2021/09/15 09:38:39;;;;;;;3.43;3.23;;;;;;;24.89;47.84;98051.91;5117274;28;20215;-55
2021/09/15 09:41:19;;;;;;;3.43;3.23;;;;;;;24.90;47.81;98049.06;5116451;28;20191;-53
2021/09/15 09:43:53;;;;;;;3.50;3.30;;;;;;;24.91;48.09;98042.69;5116057;28;20650;-51
2021/09/15 09:46:30;;;;;;;3.93;3.37;;;;;;;24.92;47.87;98049.66;5115615;28;20247;-52
2021/09/15 09:49:00;;;;;;;3.70;3.40;;;;;;;24.98;47.66;98047.16;5116774;28;20211;-52
2021/09/15 09:51:35;;;;;;;3.63;3.40;;;;;;;25.02;47.71;98049.19;5117062;28;20179;-51
2021/09/15 09:54:24;;;;;;;3.77;3.47;;;;;;;25.04;47.82;98047.13;5116832;28;20191;-52
2021/09/15 09:56:57;;;;;;;3.13;2.93;;;;;;;25.01;47.48;98046.72;5115656;28;20248;-52
2021/09/15 09:59:26;;;;;;;3.90;3.60;;;;;;;25.00;47.89;98047.75;5116139;28;20249;-52
2021/09/15 10:01:57;;;;;;;3.20;2.90;;;;;;;24.92;47.97;98044.31;5116100;28;20191;-54
2021/09/15 10:04:24;;;;;;;4.40;3.37;;;;;;;24.88;47.98;98043.13;5116622;28;20176;-51
2021/09/15 10:06:51;;;;;;;3.50;3.10;;;;;;;24.88;48.12;98047.63;5117938;28;20721;-54
2021/09/15 10:09:18;;;;;;;3.90;3.47;;;;;;;24.83;48.25;98039.44;5115593;28;20279;-51
2021/09/15 10:11:45;;;;;;;3.70;3.40;;;;;;;24.84;48.40;98044.53;5116409;28;20187;-51
2021/09/15 10:14:15;;;;;;;3.63;3.33;;;;;;;24.84;48.46;98047.22;5115500;28;20180;-52
2021/09/15 10:17:02;;;;;;;3.33;3.13;;;;;;;24.83;48.22;98040.25;5115812;28;20203;-53
2021/09/15 10:19:33;;;;;;;3.50;3.20;;;;;;;24.77;48.36;98035.75;5116483;28;20225;-50
2021/09/15 10:22:03;;;;;;;5.60;3.57;;;;;;;24.80;48.20;98035.34;5117175;28;20698;-51
2021/09/15 10:24:48;;;;;;;3.73;3.43;;;;;;;24.86;48.31;98033.66;5116613;28;20179;-52
2021/09/15 10:27:19;;;;;;;3.90;3.60;;;;;;;24.86;48.12;98033.66;5117092;28;20368;-51
2021/09/15 10:30:11;;;;;;;4.23;3.83;;;;;;;24.89;48.22;98031.41;5116341;28;20211;-52
2021/09/15 10:32:44;;;;;;;3.77;3.47;;;;;;;24.94;47.98;98031.56;5116815;28;20184;-51
2021/09/15 10:35:10;;;;;;;3.70;3.33;;;;;;;24.94;47.73;98030.78;5116569;28;20622;-53
2021/09/15 10:37:40;;;;;;;3.77;2.90;;;;;;;24.93;47.91;98029.13;5116427;28;20191;-52
2021/09/15 10:40:09;;;;;;;4.00;3.60;;;;;;;24.93;47.88;98029.13;5116048;28;20207;-51
2021/09/15 10:42:39;;;;;;;5.20;4.00;;;;;;;24.87;48.07;98030.81;5116264;28;20187;-51
2021/09/15 10:45:20;;;;;;;5.53;4.60;;;;;;;24.87;48.04;98024.63;5115662;28;20672;-51
2021/09/15 10:47:49;;;;;;;4.93;4.30;;;;;;;24.84;48.40;98025.88;5116495;28;20229;-52
2021/09/15 10:50:28;;;;;;;5.00;4.50;;;;;;;24.90;47.99;98022.38;5115706;28;20674;-52
2021/09/15 10:53:03;;;;;;;8.40;4.60;;;;;;;24.84;48.36;98025.88;5115778;28;20234;-51
2021/09/15 10:55:42;;;;;;;6.20;4.60;;;;;;;24.89;48.08;98020.72;5115824;28;20190;-51
2021/09/15 10:58:10;;;;;;;5.17;4.30;;;;;;;24.89;48.18;98022.56;5115569;28;20179;-52
2021/09/15 11:00:50;;;;;;;7.60;4.97;;;;;;;24.84;48.31;98028.53;5115764;28;20316;-53
2021/09/15 11:03:30;;;;;;;4.97;4.30;;;;;;;24.84;48.53;98025.88;5116378;28;20168;-53
2021/09/15 11:06:17;;;;;;;4.67;4.27;;;;;;;24.88;48.80;98026.28;5116361;28;20640;-52
2021/09/15 11:08:47;;;;;;;5.40;3.97;;;;;;;24.85;49.70;98021.38;5116795;28;20210;-53
2021/09/15 11:11:19;;;;;;;4.63;4.10;;;;;;;24.87;50.08;98014.78;5115216;28;20232;-55
2021/09/15 11:13:52;;;;;;;6.23;4.73;;;;;;;24.90;49.73;98017.03;5115966;28;20228;-53
2021/09/15 11:16:30;;;;;;;5.67;4.30;;;;;;;24.91;49.73;98007.97;5115815;28;20606;-55
2021/09/15 11:19:04;;;;;;;4.60;3.80;;;;;;;24.88;50.54;98021.75;5115917;28;20693;-54
2021/09/15 11:21:34;;;;;;;5.40;3.67;;;;;;;24.86;51.20;98023.81;5116264;28;20167;-54
2021/09/15 11:24:15;;;;;;;4.47;4.00;;;;;;;24.87;51.20;98014.78;5116531;28;20179;-52
2021/09/15 11:26:45;;;;;;;4.10;3.70;;;;;;;24.84;51.17;98015.19;5116362;28;20176;-54
2021/09/15 11:29:13;;;;;;;5.07;4.60;;;;;;;24.85;51.68;98011.53;5116081;28;20207;-55
2021/09/15 11:31:41;;;;;;;9.10;7.13;;;;;;;24.88;51.81;98021.75;5115839;28;20194;-53
2021/09/15 11:34:14;;;;;;;7.37;5.70;;;;;;;24.88;51.71;98016.41;5116006;28;20236;-54
2021/09/15 11:36:48;;;;;;;7.13;5.60;;;;;;;24.86;51.90;98017.66;5115266;28;20229;-53
2021/09/15 11:39:24;;;;;;;12.13;5.13;;;;;;;24.85;52.42;98024.88;5115987;28;20199;-55
2021/09/15 11:41:58;;;;;;;11.70;7.70;;;;;;;24.82;52.66;98014.59;5115647;28;20183;-55
2021/09/15 11:44:25;;;;;;;11.17;5.47;;;;;;;24.83;52.55;98018.09;5114131;28;20187;-53
2021/09/15 11:46:52;;;;;;;9.97;5.87;;;;;;;24.84;52.66;98020.53;5116113;28;20232;-53
2021/09/15 11:49:30;;;;;;;9.60;6.20;;;;;;;24.83;52.39;98012.75;5114770;28;20574;-51
2021/09/15 11:52:01;;;;;;;8.10;5.50;;;;;;;24.86;52.75;98012.31;5115514;28;20225;-54
2021/09/15 11:54:28;;;;;;;10.57;6.53;;;;;;;24.91;52.13;98007.16;5115317;28;20175;-54
2021/09/15 11:57:05;;;;;;;5.40;4.50;;;;;;;24.89;52.36;98002.03;5114646;28;20187;-55
2021/09/15 11:59:33;;;;;;;4.47;3.97;;;;;;;24.91;52.81;98010.66;5114784;28;20206;-54
2021/09/15 12:02:03;;;;;;;6.30;4.67;;;;;;;24.95;52.83;98001.19;5113724;28;20195;-54
2021/09/15 12:04:33;;;;;;;7.80;5.33;;;;;;;24.95;52.61;97998.50;5113376;28;20260;-54
2021/09/15 12:07:00;;;;;;;10.43;6.17;;;;;;;24.95;52.30;98001.19;5116125;28;20187;-49
2021/09/15 12:09:27;;;;;;;9.40;6.30;;;;;;;24.99;52.06;97990.91;5115404;28;20203;-52
2021/09/15 12:11:54;;;;;;;9.40;6.23;;;;;;;25.03;51.82;97986.75;5114977;28;20594;-53
2021/09/15 12:14:21;;;;;;;6.60;5.30;;;;;;;25.04;51.92;97990.25;5114834;28;20187;-53
2021/09/15 12:16:47;;;;;;;8.27;6.20;;;;;;;25.04;51.73;97984.91;5114043;28;20249;-55
2021/09/15 12:19:15;;;;;;;7.53;6.00;;;;;;;25.04;51.69;97980.38;5114283;28;20298;-52
2021/09/15 12:21:47;;;;;;;7.73;5.70;;;;;;;25.05;51.37;97981.22;5113857;28;20244;-49
2021/09/15 12:24:16;;;;;;;8.17;6.27;;;;;;;25.03;51.26;97977.94;5114107;28;20179;-52
2021/09/15 12:26:42;;;;;;;5.83;5.20;;;;;;;25.05;51.25;97982.03;5113877;28;20206;-51
2021/09/15 12:29:15;;;;;;;8.17;5.93;;;;;;;25.07;51.03;97985.28;5113858;28;20264;-51
2021/09/15 12:31:50;;;;;;;7.53;5.23;;;;;;;25.06;51.02;97977.50;5114114;28;20202;-52
2021/09/15 12:34:30;;;;;;;6.30;5.43;;;;;;;25.06;51.02;97977.50;5114363;28;20236;-52
2021/09/15 12:37:18;;;;;;;6.73;5.63;;;;;;;25.15;50.54;97973.53;5114298;28;20593;-54
2021/09/15 12:39:56;;;;;;;7.60;5.50;;;;;;;25.07;50.75;97971.94;5113921;28;20257;-51
2021/09/15 12:42:25;;;;;;;7.30;5.70;;;;;;;25.06;50.74;97966.84;5113949;28;20179;-54
2021/09/15 12:45:03;;;;;;;5.93;5.30;;;;;;;25.00;50.52;97962.34;5113975;28;20187;-51
2021/09/15 12:47:39;;;;;;;6.40;5.60;;;;;;;25.00;50.55;97968.50;5116490;28;20171;-54
2021/09/15 12:50:24;;;;;;;6.57;5.37;;;;;;;25.02;50.49;97965.63;5117762;28;20210;-51
2021/09/15 12:53:09;;;;;;;7.57;5.50;;;;;;;24.97;50.25;97974.28;5118339;28;20574;-51
2021/09/15 12:55:44;;;;;;;6.27;5.20;;;;;;;24.95;50.43;97974.50;5117921;28;20175;-55
2021/09/15 12:58:22;;;;;;;6.43;5.27;;;;;;;24.92;50.52;97969.59;5117478;28;20634;-52
2021/09/15 13:00:48;;;;;;;6.27;5.20;;;;;;;24.89;50.48;97970.03;5117675;28;20195;-52
2021/09/15 13:03:15;;;;;;;5.63;4.77;;;;;;;24.93;50.60;97970.41;5117263;28;20214;-52
2021/09/15 13:05:49;;;;;;;6.07;5.23;;;;;;;24.97;50.37;97965.44;5117254;28;20240;-53
2021/09/15 13:08:21;;;;;;;5.23;4.50;;;;;;;24.99;50.19;97968.72;5117479;28;20179;-54
2021/09/15 13:10:50;;;;;;;7.03;4.67;;;;;;;24.99;50.30;97966.88;5117085;28;20213;-54
2021/09/15 13:13:18;;;;;;;5.97;5.20;;;;;;;25.01;50.23;97961.31;5117212;28;20602;-52
2021/09/15 13:15:46;;;;;;;5.90;5.30;;;;;;;25.01;50.14;97962.13;5117577;28;20191;-53
2021/09/15 13:18:12;;;;;;;6.60;4.77;;;;;;;24.99;49.98;97963.38;5117060;28;20195;-53
2021/09/15 13:20:40;;;;;;;6.80;5.00;;;;;;;24.95;50.00;97966.47;5117316;28;20641;-52
2021/09/15 13:23:07;;;;;;;6.53;4.93;;;;;;;24.94;50.27;97961.38;5117264;28;20520;-54
2021/09/15 13:25:33;;;;;;;5.10;4.60;;;;;;;24.91;50.29;97959.94;5116788;28;20195;-55
2021/09/15 13:28:00;;;;;;;6.07;5.20;;;;;;;24.91;50.16;97964.44;5116846;28;20192;-52
2021/09/15 13:30:27;;;;;;;5.77;5.00;;;;;;;24.95;50.12;97969.16;5116666;28;20215;-52
2021/09/15 13:32:53;;;;;;;7.03;4.90;;;;;;;24.99;49.95;97969.53;5116834;28;20183;-53